createdAt,value
2017-06-29T00:00:50.981Z,988.8
2017-06-29T00:01:53.351Z,988.8
2017-06-29T00:02:56.044Z,988.8
2017-06-29T00:03:58.061Z,988.8
2017-06-29T00:05:00.089Z,988.8
2017-06-29T00:06:02.125Z,988.7
2017-06-29T00:07:04.138Z,988.8
2017-06-29T00:08:06.159Z,988.7
2017-06-29T00:09:08.173Z,988.7
2017-06-29T00:10:10.191Z,988.7
2017-06-29T00:11:12.576Z,988.8
2017-06-29T00:12:14.590Z,988.8
2017-06-29T00:13:16.612Z,988.8
2017-06-29T00:14:18.973Z,988.8
2017-06-29T00:15:21.004Z,988.8
2017-06-29T00:16:23.363Z,988.8
2017-06-29T00:17:25.386Z,988.7
2017-06-29T00:18:27.402Z,988.7
2017-06-29T00:19:29.414Z,988.7
2017-06-29T00:20:31.433Z,988.7
2017-06-29T00:21:33.456Z,988.7
2017-06-29T00:22:35.468Z,988.8
2017-06-29T00:23:37.482Z,988.7
2017-06-29T00:24:39.842Z,988.7
2017-06-29T00:25:41.856Z,988.7
2017-06-29T00:26:43.873Z,988.7
2017-06-29T00:27:45.888Z,988.7
2017-06-29T00:28:47.919Z,988.6
2017-06-29T00:29:49.936Z,988.7
2017-06-29T00:30:51.949Z,988.6
2017-06-29T00:31:53.968Z,988.6
2017-06-29T00:32:56.325Z,988.5
2017-06-29T00:33:58.683Z,988.5
2017-06-29T00:35:00.698Z,988.5
2017-06-29T00:36:02.719Z,988.5
2017-06-29T00:37:04.735Z,988.5
2017-06-29T00:38:06.752Z,988.5
2017-06-29T00:39:08.768Z,988.5
2017-06-29T00:40:10.793Z,988.5
2017-06-29T00:42:45.247Z,988.4
2017-06-29T00:43:47.614Z,988.4
2017-06-29T00:44:50.318Z,988.4
2017-06-29T00:45:52.331Z,988.4
2017-06-29T00:46:54.353Z,988.4
2017-06-29T00:47:56.370Z,988.3
2017-06-29T00:48:58.390Z,988.4
2017-06-29T00:50:00.404Z,988.4
2017-06-29T00:51:02.426Z,988.4
2017-06-29T00:52:04.446Z,988.4
2017-06-29T00:53:06.474Z,988.4
2017-06-29T00:54:08.489Z,988.4
2017-06-29T00:55:10.504Z,988.4
2017-06-29T00:56:12.518Z,988.5
2017-06-29T00:57:14.534Z,988.5
2017-06-29T00:58:16.558Z,988.5
2017-06-29T00:59:18.579Z,988.5
2017-06-29T01:00:20.932Z,988.6
2017-06-29T01:01:22.948Z,988.6
2017-06-29T01:02:24.965Z,988.6
2017-06-29T01:03:26.986Z,988.5
2017-06-29T01:04:29.009Z,988.5
2017-06-29T01:05:31.029Z,988.6
2017-06-29T01:06:33.051Z,988.5
2017-06-29T01:07:35.069Z,988.5
2017-06-29T01:08:37.421Z,988.6
2017-06-29T01:09:39.447Z,988.6
2017-06-29T01:10:41.459Z,988.7
2017-06-29T01:11:43.485Z,988.6
2017-06-29T01:12:45.503Z,988.6
2017-06-29T01:13:47.867Z,988.6
2017-06-29T01:14:50.560Z,988.6
2017-06-29T01:15:52.584Z,988.6
2017-06-29T01:16:54.603Z,988.6
2017-06-29T01:17:56.619Z,988.6
2017-06-29T01:18:58.628Z,988.6
2017-06-29T01:20:00.652Z,988.6
2017-06-29T01:21:02.664Z,988.6
2017-06-29T01:22:05.023Z,988.6
2017-06-29T01:23:07.039Z,988.6
2017-06-29T01:24:09.055Z,988.6
2017-06-29T01:25:11.079Z,988.6
2017-06-29T01:26:13.101Z,988.6
2017-06-29T01:27:15.119Z,988.6
2017-06-29T01:28:17.824Z,988.6
2017-06-29T01:29:20.855Z,988.6
2017-06-29T01:30:22.878Z,988.6
2017-06-29T01:31:24.931Z,988.6
2017-06-29T01:32:26.951Z,988.6
2017-06-29T01:33:29.317Z,988.7
2017-06-29T01:34:31.332Z,988.6
2017-06-29T01:35:34.034Z,988.6
2017-06-29T01:36:36.049Z,988.7
2017-06-29T01:37:38.067Z,988.6
2017-06-29T01:38:40.082Z,988.6
2017-06-29T01:39:42.096Z,988.6
2017-06-29T01:40:44.123Z,988.5
2017-06-29T01:41:46.145Z,988.6
2017-06-29T01:42:48.151Z,988.5
2017-06-29T01:43:50.170Z,988.5
2017-06-29T01:44:52.185Z,988.5
2017-06-29T01:45:54.206Z,988.5
2017-06-29T01:46:56.556Z,988.5
2017-06-29T01:47:58.572Z,988.5
2017-06-29T01:49:00.599Z,988.5
2017-06-29T01:50:02.618Z,988.5
2017-06-29T01:51:04.631Z,988.5
2017-06-29T01:52:06.655Z,988.4
2017-06-29T01:53:08.672Z,988.4
2017-06-29T01:54:10.691Z,988.4
2017-06-29T01:55:13.061Z,988.4
2017-06-29T01:56:15.079Z,988.4
2017-06-29T01:57:17.429Z,988.4
2017-06-29T01:58:19.445Z,988.3
2017-06-29T01:59:21.462Z,988.3
2017-06-29T02:00:23.482Z,988.2
2017-06-29T02:01:25.827Z,988.3
2017-06-29T02:02:27.845Z,988.3
2017-06-29T02:03:29.855Z,988.3
2017-06-29T02:04:32.561Z,988.4
2017-06-29T02:05:34.583Z,988.4
2017-06-29T02:06:36.605Z,988.4
2017-06-29T02:07:38.619Z,988.5
2017-06-29T02:08:40.641Z,988.5
2017-06-29T02:09:42.657Z,988.5
2017-06-29T02:10:45.013Z,988.5
2017-06-29T02:11:47.033Z,988.5
2017-06-29T02:12:49.047Z,988.5
2017-06-29T02:13:51.068Z,988.5
2017-06-29T02:14:53.085Z,988.6
2017-06-29T02:15:55.101Z,988.6
2017-06-29T02:16:57.119Z,988.6
2017-06-29T02:17:59.131Z,988.6
2017-06-29T02:19:01.490Z,988.6
2017-06-29T02:20:03.513Z,988.6
2017-06-29T02:21:05.532Z,988.7
2017-06-29T02:22:07.899Z,988.7
2017-06-29T02:23:09.911Z,988.6
2017-06-29T02:24:11.933Z,988.7
2017-06-29T02:25:13.947Z,988.6
2017-06-29T02:26:15.962Z,988.7
2017-06-29T02:27:17.983Z,988.7
2017-06-29T02:28:20.009Z,988.7
2017-06-29T02:29:22.023Z,988.7
2017-06-29T02:30:24.045Z,988.7
2017-06-29T02:31:26.406Z,988.7
2017-06-29T02:32:28.427Z,988.6
2017-06-29T02:33:30.442Z,988.6
2017-06-29T02:34:32.464Z,988.6
2017-06-29T02:35:34.834Z,988.6
2017-06-29T02:36:36.851Z,988.6
2017-06-29T02:37:38.874Z,988.6
2017-06-29T02:38:40.898Z,988.6
2017-06-29T02:39:42.912Z,988.6
2017-06-29T02:40:45.280Z,988.5
2017-06-29T02:41:47.295Z,988.6
2017-06-29T02:42:49.325Z,988.6
2017-06-29T02:43:51.345Z,988.6
2017-06-29T02:44:53.363Z,988.7
2017-06-29T02:45:55.384Z,988.7
2017-06-29T02:46:57.400Z,988.8
2017-06-29T02:47:59.762Z,988.8
2017-06-29T02:49:01.788Z,988.8
2017-06-29T02:50:03.808Z,988.8
2017-06-29T02:51:05.823Z,988.8
2017-06-29T02:52:07.849Z,988.8
2017-06-29T02:53:09.870Z,988.8
2017-06-29T02:54:11.900Z,988.7
2017-06-29T02:55:13.922Z,988.6
2017-06-29T02:56:15.942Z,988.6
2017-06-29T02:57:17.965Z,988.6
2017-06-29T02:58:19.980Z,988.5
2017-06-29T02:59:22.005Z,988.6
2017-06-29T03:00:24.029Z,988.6
2017-06-29T03:01:26.047Z,988.7
2017-06-29T03:02:28.071Z,988.6
2017-06-29T03:03:30.086Z,988.7
2017-06-29T03:04:32.106Z,988.7
2017-06-29T03:05:34.130Z,988.7
2017-06-29T03:06:36.150Z,988.7
2017-06-29T03:07:38.852Z,988.7
2017-06-29T03:08:40.874Z,988.6
2017-06-29T03:09:42.890Z,988.6
2017-06-29T03:10:44.913Z,988.6
2017-06-29T03:11:47.271Z,988.6
2017-06-29T03:12:49.287Z,988.6
2017-06-29T03:13:51.982Z,988.6
2017-06-29T03:14:54.003Z,988.5
2017-06-29T03:15:56.022Z,988.5
2017-06-29T03:16:58.386Z,988.4
2017-06-29T03:18:00.401Z,988.4
2017-06-29T03:19:02.427Z,988.4
2017-06-29T03:20:04.453Z,988.4
2017-06-29T03:21:06.477Z,988.5
2017-06-29T03:22:08.498Z,988.4
2017-06-29T03:23:10.518Z,988.4
2017-06-29T03:24:12.557Z,988.5
2017-06-29T03:25:14.911Z,988.5
2017-06-29T03:26:16.933Z,988.5
2017-06-29T03:27:18.960Z,988.5
2017-06-29T03:28:20.984Z,988.5
2017-06-29T03:29:23.009Z,988.5
2017-06-29T03:30:25.362Z,988.5
2017-06-29T03:31:27.376Z,988.5
2017-06-29T03:32:29.400Z,988.5
2017-06-29T03:33:31.421Z,988.5
2017-06-29T03:34:33.456Z,988.5
2017-06-29T03:35:35.474Z,988.5
2017-06-29T03:36:37.496Z,988.4
2017-06-29T03:37:39.517Z,988.4
2017-06-29T03:38:41.873Z,988.4
2017-06-29T03:39:43.891Z,988.4
2017-06-29T03:40:45.912Z,988.4
2017-06-29T03:41:47.929Z,988.4
2017-06-29T03:42:49.956Z,988.4
2017-06-29T03:43:51.978Z,988.3
2017-06-29T03:44:54.002Z,988.3
2017-06-29T03:45:56.029Z,988.3
2017-06-29T03:46:58.384Z,988.3
2017-06-29T03:48:00.746Z,988.3
2017-06-29T03:49:02.770Z,988.3
2017-06-29T03:50:05.126Z,988.2
2017-06-29T03:51:07.151Z,988.3
2017-06-29T03:52:09.178Z,988.2
2017-06-29T03:53:11.546Z,988.2
2017-06-29T03:54:13.575Z,988.2
2017-06-29T03:55:15.597Z,988.2
2017-06-29T03:56:17.623Z,988.2
2017-06-29T03:57:19.636Z,988.2
2017-06-29T03:58:21.663Z,988.1
2017-06-29T03:59:23.684Z,988.2
2017-06-29T04:00:25.698Z,988.2
2017-06-29T04:01:28.397Z,988.2
2017-06-29T04:02:30.415Z,988.2
2017-06-29T04:03:32.442Z,988.2
2017-06-29T04:04:35.140Z,988.2
2017-06-29T04:05:37.160Z,988.2
2017-06-29T04:06:39.520Z,988.2
2017-06-29T04:07:41.542Z,988.2
2017-06-29T04:08:43.564Z,988.1
2017-06-29T04:09:45.590Z,988.1
2017-06-29T04:10:47.649Z,988.1
2017-06-29T04:11:49.678Z,988
2017-06-29T04:12:51.701Z,988
2017-06-29T04:13:53.726Z,988
2017-06-29T04:14:55.759Z,988
2017-06-29T04:15:57.789Z,988
2017-06-29T04:16:59.816Z,988
2017-06-29T04:18:01.840Z,988.1
2017-06-29T04:19:03.854Z,988.1
2017-06-29T04:20:05.884Z,988.1
2017-06-29T04:21:07.899Z,988.1
2017-06-29T04:22:09.916Z,988.1
2017-06-29T04:23:11.938Z,988.1
2017-06-29T04:24:13.954Z,988.1
2017-06-29T04:25:15.973Z,988.1
2017-06-29T04:26:17.991Z,988.1
2017-06-29T04:27:20.352Z,988.1
2017-06-29T04:28:22.380Z,988.1
2017-06-29T04:29:24.737Z,988.1
2017-06-29T04:30:26.767Z,988.1
2017-06-29T04:31:29.141Z,988.1
2017-06-29T04:32:31.161Z,988.1
2017-06-29T04:33:33.196Z,988.1
2017-06-29T04:34:35.574Z,988
2017-06-29T04:35:37.641Z,988
2017-06-29T04:36:39.670Z,988
2017-06-29T04:37:41.696Z,988
2017-06-29T04:38:43.719Z,988
2017-06-29T04:39:46.084Z,988
2017-06-29T04:40:48.441Z,988
2017-06-29T04:41:50.803Z,988.1
2017-06-29T04:42:52.830Z,988.1
2017-06-29T04:43:55.185Z,988.1
2017-06-29T04:44:57.219Z,988.1
2017-06-29T04:45:59.574Z,988.1
2017-06-29T04:47:01.598Z,988
2017-06-29T04:48:03.623Z,988
2017-06-29T04:49:06.355Z,987.9
2017-06-29T04:50:08.384Z,988
2017-06-29T04:51:10.406Z,988
2017-06-29T04:52:12.433Z,987.9
2017-06-29T04:53:14.456Z,987.9
2017-06-29T04:54:16.467Z,987.9
2017-06-29T04:55:18.825Z,987.9
2017-06-29T04:56:20.846Z,987.8
2017-06-29T04:57:22.859Z,987.9
2017-06-29T04:58:24.881Z,987.9
2017-06-29T04:59:26.898Z,987.9
2017-06-29T05:00:28.922Z,987.9
2017-06-29T05:01:30.946Z,987.9
2017-06-29T05:02:33.302Z,987.9
2017-06-29T05:03:35.324Z,987.9
2017-06-29T05:04:37.337Z,987.9
2017-06-29T05:05:39.363Z,987.9
2017-06-29T05:06:41.382Z,987.8
2017-06-29T05:07:43.402Z,987.8
2017-06-29T05:08:45.423Z,987.8
2017-06-29T05:09:47.442Z,987.9
2017-06-29T05:10:49.471Z,987.9
2017-06-29T05:11:51.498Z,987.9
2017-06-29T05:12:53.519Z,987.9
2017-06-29T05:13:56.218Z,987.9
2017-06-29T05:14:58.594Z,987.9
2017-06-29T05:16:00.612Z,987.8
2017-06-29T05:17:02.627Z,987.8
2017-06-29T05:18:04.655Z,987.9
2017-06-29T05:19:06.672Z,987.9
2017-06-29T05:20:08.693Z,987.9
2017-06-29T05:21:10.715Z,987.9
2017-06-29T05:22:12.739Z,987.9
2017-06-29T05:23:14.758Z,987.9
2017-06-29T05:24:16.782Z,987.9
2017-06-29T05:25:18.827Z,987.9
2017-06-29T05:26:20.852Z,987.9
2017-06-29T05:27:22.875Z,987.9
2017-06-29T05:28:24.897Z,987.9
2017-06-29T05:29:26.917Z,987.9
2017-06-29T05:30:28.948Z,988
2017-06-29T05:31:30.971Z,988
2017-06-29T05:32:33.026Z,988
2017-06-29T05:33:35.043Z,988
2017-06-29T05:34:37.408Z,988
2017-06-29T05:35:39.431Z,988
2017-06-29T05:36:41.460Z,987.9
2017-06-29T05:37:43.481Z,987.9
2017-06-29T05:38:45.503Z,987.8
2017-06-29T05:39:47.524Z,987.9
2017-06-29T05:40:49.545Z,987.9
2017-06-29T05:41:51.567Z,987.9
2017-06-29T05:42:53.597Z,987.8
2017-06-29T05:43:55.961Z,987.8
2017-06-29T05:44:57.989Z,987.8
2017-06-29T05:46:00.003Z,987.8
2017-06-29T05:47:02.385Z,987.8
2017-06-29T05:48:04.406Z,987.8
2017-06-29T05:49:06.428Z,987.8
2017-06-29T05:50:08.453Z,987.8
2017-06-29T05:51:10.470Z,987.8
2017-06-29T05:52:12.489Z,987.8
2017-06-29T05:53:14.516Z,987.8
2017-06-29T05:54:16.534Z,987.8
2017-06-29T05:55:18.891Z,987.8
2017-06-29T05:56:20.911Z,987.8
2017-06-29T05:57:22.931Z,987.8
2017-06-29T05:58:24.964Z,987.8
2017-06-29T05:59:27.666Z,987.8
2017-06-29T06:00:29.684Z,987.7
2017-06-29T06:01:32.068Z,987.7
2017-06-29T06:02:34.429Z,987.7
2017-06-29T06:03:36.448Z,987.7
2017-06-29T06:04:38.474Z,987.7
2017-06-29T06:05:40.499Z,987.7
2017-06-29T06:06:42.853Z,987.7
2017-06-29T06:07:44.880Z,987.8
2017-06-29T06:08:46.914Z,987.7
2017-06-29T06:09:49.032Z,987.7
2017-06-29T06:10:51.861Z,987.7
2017-06-29T06:11:54.832Z,987.7
2017-06-29T06:12:58.336Z,987.7
2017-06-29T06:14:02.584Z,987.7
2017-06-29T06:15:05.560Z,987.7
2017-06-29T06:16:09.086Z,987.7
2017-06-29T06:17:14.015Z,987.7
2017-06-29T06:18:17.980Z,987.7
2017-06-29T06:19:21.801Z,987.7
2017-06-29T06:20:25.072Z,987.7
2017-06-29T06:21:29.802Z,987.7
2017-06-29T06:22:34.187Z,987.7
2017-06-29T06:23:39.984Z,987.7
2017-06-29T06:24:43.100Z,987.7
2017-06-29T06:25:46.814Z,987.7
2017-06-29T06:26:50.525Z,987.7
2017-06-29T06:27:53.678Z,987.7
2017-06-29T06:28:56.651Z,987.7
2017-06-29T06:30:00.802Z,987.8
2017-06-29T06:31:04.668Z,987.7
2017-06-29T06:32:07.522Z,987.8
2017-06-29T06:33:12.007Z,987.7
2017-06-29T06:34:15.776Z,987.8
2017-06-29T06:35:19.220Z,987.8
2017-06-29T06:36:24.356Z,987.8
2017-06-29T06:37:28.932Z,987.8
2017-06-29T06:38:32.946Z,987.8
2017-06-29T06:39:37.095Z,987.7
2017-06-29T06:40:41.841Z,987.8
2017-06-29T06:41:46.498Z,987.8
2017-06-29T06:42:50.707Z,987.7
2017-06-29T06:43:54.368Z,987.7
2017-06-29T06:44:57.644Z,987.7
2017-06-29T06:46:01.899Z,987.7
2017-06-29T06:47:03.947Z,987.6
2017-06-29T06:48:06.335Z,987.7
2017-06-29T06:49:08.357Z,987.6
2017-06-29T06:50:10.386Z,987.7
2017-06-29T06:51:12.452Z,987.7
2017-06-29T06:52:14.476Z,987.7
2017-06-29T06:53:16.502Z,987.8
2017-06-29T06:54:18.533Z,987.7
2017-06-29T06:55:20.888Z,987.8
2017-06-29T06:56:22.919Z,987.7
2017-06-29T06:57:24.950Z,987.8
2017-06-29T06:58:26.985Z,987.8
2017-06-29T06:59:29.007Z,987.8
2017-06-29T07:00:31.028Z,987.8
2017-06-29T07:01:33.059Z,987.7
2017-06-29T07:02:35.121Z,987.8
2017-06-29T07:03:37.159Z,987.8
2017-06-29T07:04:39.522Z,987.8
2017-06-29T07:05:41.553Z,987.8
2017-06-29T07:06:43.599Z,987.8
2017-06-29T07:07:46.190Z,987.8
2017-06-29T07:08:48.226Z,987.8
2017-06-29T07:09:50.256Z,987.8
2017-06-29T07:10:52.293Z,987.8
2017-06-29T07:11:54.754Z,987.8
2017-06-29T07:12:57.646Z,987.8
2017-06-29T07:13:59.671Z,987.8
2017-06-29T07:15:01.712Z,987.8
2017-06-29T07:16:04.070Z,987.9
2017-06-29T07:17:06.107Z,987.8
2017-06-29T07:18:08.463Z,987.8
2017-06-29T07:19:10.485Z,987.8
2017-06-29T07:20:12.511Z,987.8
2017-06-29T07:21:14.550Z,987.8
2017-06-29T07:22:17.254Z,987.8
2017-06-29T07:23:19.277Z,987.8
2017-06-29T07:24:21.333Z,987.8
2017-06-29T07:25:23.367Z,987.8
2017-06-29T07:26:25.393Z,987.8
2017-06-29T07:27:27.423Z,987.7
2017-06-29T07:28:29.454Z,987.8
2017-06-29T07:29:31.476Z,987.8
2017-06-29T07:30:33.506Z,987.7
2017-06-29T07:31:35.525Z,987.7
2017-06-29T07:32:37.545Z,987.6
2017-06-29T07:33:39.577Z,987.7
2017-06-29T07:34:41.600Z,987.6
2017-06-29T07:35:43.622Z,987.7
2017-06-29T07:36:45.985Z,987.7
2017-06-29T07:37:48.366Z,987.7
2017-06-29T07:38:50.731Z,987.7
2017-06-29T07:39:53.091Z,987.7
2017-06-29T07:40:55.127Z,987.7
2017-06-29T07:41:57.532Z,987.7
2017-06-29T07:42:59.555Z,987.7
2017-06-29T07:44:01.918Z,987.7
2017-06-29T07:45:03.954Z,987.7
2017-06-29T07:46:06.335Z,987.7
2017-06-29T07:47:08.357Z,987.8
2017-06-29T07:48:10.381Z,987.7
2017-06-29T07:49:12.438Z,987.8
2017-06-29T07:50:14.474Z,987.7
2017-06-29T07:51:16.500Z,987.7
2017-06-29T07:52:18.529Z,987.8
2017-06-29T07:53:20.589Z,987.8
2017-06-29T07:54:22.614Z,987.8
2017-06-29T07:55:24.634Z,987.8
2017-06-29T07:56:26.665Z,987.8
2017-06-29T07:57:28.690Z,987.7
2017-06-29T07:58:30.764Z,987.7
2017-06-29T07:59:32.786Z,987.7
2017-06-29T08:00:34.811Z,987.7
2017-06-29T08:01:36.845Z,987.7
2017-06-29T08:02:39.209Z,987.8
2017-06-29T08:03:41.232Z,987.8
2017-06-29T08:04:43.259Z,987.8
2017-06-29T08:05:45.288Z,987.8
2017-06-29T08:06:47.320Z,987.8
2017-06-29T08:07:49.345Z,987.8
2017-06-29T08:08:51.716Z,987.7
2017-06-29T08:09:53.749Z,987.8
2017-06-29T08:10:55.770Z,987.7
2017-06-29T08:11:57.793Z,987.7
2017-06-29T08:12:59.820Z,987.7
2017-06-29T08:14:01.846Z,987.6
2017-06-29T08:15:03.868Z,987.6
2017-06-29T08:16:06.244Z,987.7
2017-06-29T08:17:08.270Z,987.6
2017-06-29T08:18:10.972Z,987.7
2017-06-29T08:19:12.997Z,987.7
2017-06-29T08:20:15.018Z,987.6
2017-06-29T08:21:17.056Z,987.6
2017-06-29T08:22:19.084Z,987.7
2017-06-29T08:23:21.109Z,987.7
2017-06-29T08:24:23.148Z,987.7
2017-06-29T08:25:25.180Z,987.7
2017-06-29T08:26:27.212Z,987.7
2017-06-29T08:27:29.238Z,987.6
2017-06-29T08:28:31.602Z,987.6
2017-06-29T08:29:33.626Z,987.6
2017-06-29T08:30:35.658Z,987.6
2017-06-29T08:31:38.053Z,987.6
2017-06-29T08:32:40.086Z,987.6
2017-06-29T08:33:42.115Z,987.6
2017-06-29T08:34:44.147Z,987.6
2017-06-29T08:35:46.165Z,987.6
2017-06-29T08:36:48.192Z,987.6
2017-06-29T08:37:50.227Z,987.6
2017-06-29T08:38:52.249Z,987.6
2017-06-29T08:39:54.276Z,987.5
2017-06-29T08:40:56.310Z,987.5
2017-06-29T08:41:58.344Z,987.5
2017-06-29T08:43:00.377Z,987.5
2017-06-29T08:44:02.789Z,987.5
2017-06-29T08:45:04.811Z,987.5
2017-06-29T08:46:06.840Z,987.5
2017-06-29T08:47:08.861Z,987.5
2017-06-29T08:48:10.897Z,987.5
2017-06-29T08:49:12.923Z,987.5
2017-06-29T08:50:14.952Z,987.5
2017-06-29T08:51:16.977Z,987.6
2017-06-29T08:52:19.006Z,987.5
2017-06-29T08:53:21.031Z,987.6
2017-06-29T08:54:23.064Z,987.6
2017-06-29T08:55:25.084Z,987.5
2017-06-29T08:56:27.119Z,987.6
2017-06-29T08:57:29.481Z,987.5
2017-06-29T08:58:31.514Z,987.6
2017-06-29T08:59:33.575Z,987.6
2017-06-29T09:00:35.943Z,987.5
2017-06-29T09:01:37.967Z,987.6
2017-06-29T09:02:40.006Z,987.6
2017-06-29T09:03:42.028Z,987.7
2017-06-29T09:04:44.054Z,987.6
2017-06-29T09:05:46.087Z,987.7
2017-06-29T09:06:48.115Z,987.7
2017-06-29T09:07:50.148Z,987.7
2017-06-29T09:08:52.180Z,987.7
2017-06-29T09:09:54.203Z,987.7
2017-06-29T09:10:56.238Z,987.7
2017-06-29T09:11:58.264Z,987.8
2017-06-29T09:13:00.282Z,987.7
2017-06-29T09:14:02.321Z,987.8
2017-06-29T09:15:04.378Z,987.8
2017-06-29T09:16:06.406Z,987.8
2017-06-29T09:17:08.432Z,987.8
2017-06-29T09:18:10.466Z,987.8
2017-06-29T09:19:12.498Z,987.8
2017-06-29T09:20:14.526Z,987.8
2017-06-29T09:21:16.560Z,987.8
2017-06-29T09:22:18.594Z,987.8
2017-06-29T09:23:20.622Z,987.8
2017-06-29T09:24:22.653Z,987.8
2017-06-29T09:25:25.021Z,987.8
2017-06-29T09:26:27.054Z,987.8
2017-06-29T09:27:29.425Z,987.8
2017-06-29T09:28:31.453Z,987.8
2017-06-29T09:29:33.494Z,987.7
2017-06-29T09:30:35.520Z,987.8
2017-06-29T09:31:37.548Z,987.7
2017-06-29T09:32:39.574Z,987.7
2017-06-29T09:33:41.606Z,987.7
2017-06-29T09:34:43.632Z,987.7
2017-06-29T09:35:45.664Z,987.7
2017-06-29T09:36:47.698Z,987.7
2017-06-29T09:37:50.068Z,987.6
2017-06-29T09:38:52.100Z,987.7
2017-06-29T09:39:54.466Z,987.6
2017-06-29T09:40:56.499Z,987.7
2017-06-29T09:41:58.530Z,987.7
2017-06-29T09:43:00.557Z,987.6
2017-06-29T09:44:02.582Z,987.6
2017-06-29T09:45:04.616Z,987.7
2017-06-29T09:46:06.657Z,987.6
2017-06-29T09:47:08.683Z,987.7
2017-06-29T09:48:10.705Z,987.7
2017-06-29T09:49:12.743Z,987.7
2017-06-29T09:50:14.775Z,987.7
2017-06-29T09:51:16.806Z,987.7
2017-06-29T09:52:18.832Z,987.7
2017-06-29T09:53:21.196Z,987.7
2017-06-29T09:54:23.247Z,987.7
2017-06-29T09:55:25.276Z,987.7
2017-06-29T09:56:27.307Z,987.7
2017-06-29T09:57:29.338Z,987.7
2017-06-29T09:58:31.365Z,987.7
2017-06-29T09:59:33.732Z,987.6
2017-06-29T10:00:35.759Z,987.6
2017-06-29T10:01:37.788Z,987.6
2017-06-29T10:02:39.815Z,987.7
2017-06-29T10:03:41.846Z,987.7
2017-06-29T10:04:43.874Z,987.7
2017-06-29T10:05:45.898Z,987.7
2017-06-29T10:06:48.604Z,987.7
2017-06-29T10:07:50.629Z,987.7
2017-06-29T10:08:52.659Z,987.7
2017-06-29T10:09:54.700Z,987.8
2017-06-29T10:10:56.727Z,987.7
2017-06-29T10:11:58.754Z,987.7
2017-06-29T10:13:00.785Z,987.8
2017-06-29T10:14:02.821Z,987.8
2017-06-29T10:15:04.852Z,987.8
2017-06-29T10:16:06.881Z,987.8
2017-06-29T10:17:08.926Z,987.8
2017-06-29T10:18:11.293Z,987.8
2017-06-29T10:19:13.319Z,987.7
2017-06-29T10:20:15.360Z,987.8
2017-06-29T10:21:17.385Z,987.7
2017-06-29T10:22:19.417Z,987.7
2017-06-29T10:23:21.484Z,987.7
2017-06-29T10:24:23.522Z,987.7
2017-06-29T10:25:25.545Z,987.7
2017-06-29T10:26:27.574Z,987.7
2017-06-29T10:27:29.947Z,987.7
2017-06-29T10:28:31.979Z,987.6
2017-06-29T10:29:34.008Z,987.6
2017-06-29T10:30:36.043Z,987.6
2017-06-29T10:31:38.069Z,987.7
2017-06-29T10:32:40.100Z,987.6
2017-06-29T10:33:42.125Z,987.6
2017-06-29T10:34:44.492Z,987.6
2017-06-29T10:35:46.520Z,987.7
2017-06-29T10:36:48.555Z,987.6
2017-06-29T10:37:50.585Z,987.6
2017-06-29T10:38:52.615Z,987.7
2017-06-29T10:39:54.645Z,987.7
2017-06-29T10:40:56.669Z,987.7
2017-06-29T10:41:59.046Z,987.7
2017-06-29T10:43:01.086Z,987.7
2017-06-29T10:44:03.110Z,987.7
2017-06-29T10:45:05.490Z,987.7
2017-06-29T10:46:07.523Z,987.7
2017-06-29T10:47:09.556Z,987.7
2017-06-29T10:48:11.589Z,987.8
2017-06-29T10:49:13.613Z,987.7
2017-06-29T10:50:15.645Z,987.7
2017-06-29T10:51:17.678Z,987.8
2017-06-29T10:52:19.711Z,987.7
2017-06-29T10:53:22.084Z,987.8
2017-06-29T10:54:24.114Z,987.7
2017-06-29T10:55:26.142Z,987.7
2017-06-29T10:56:28.305Z,987.7
2017-06-29T10:57:31.413Z,987.7
2017-06-29T10:58:33.990Z,987.7
2017-06-29T10:59:36.060Z,987.7
2017-06-29T11:00:38.433Z,987.7
2017-06-29T11:01:40.464Z,987.7
2017-06-29T11:02:42.498Z,987.7
2017-06-29T11:03:44.536Z,987.7
2017-06-29T11:04:46.568Z,987.7
2017-06-29T11:05:50.214Z,987.7
2017-06-29T11:06:56.039Z,987.7
2017-06-29T11:08:04.569Z,987.7
2017-06-29T11:09:12.284Z,987.6
2017-06-29T11:10:21.978Z,987.7
2017-06-29T11:11:32.093Z,987.7
2017-06-29T11:12:40.256Z,987.7
2017-06-29T11:13:46.070Z,987.7
2017-06-29T11:14:48.495Z,987.7
2017-06-29T11:15:52.220Z,987.7
2017-06-29T11:16:56.216Z,987.7
2017-06-29T11:18:02.967Z,987.7
2017-06-29T11:19:12.826Z,987.6
2017-06-29T11:20:22.410Z,987.6
2017-06-29T11:21:29.414Z,987.5
2017-06-29T11:22:38.354Z,987.6
2017-06-29T11:23:47.062Z,987.6
2017-06-29T11:24:55.563Z,987.5
2017-06-29T11:26:01.956Z,987.5
2017-06-29T11:27:10.776Z,987.5
2017-06-29T11:28:18.934Z,987.5
2017-06-29T11:29:27.228Z,987.6
2017-06-29T11:30:34.999Z,987.6
2017-06-29T11:31:37.031Z,987.6
2017-06-29T11:32:39.068Z,987.6
2017-06-29T11:33:41.103Z,987.5
2017-06-29T11:34:43.133Z,987.5
2017-06-29T11:35:45.167Z,987.5
2017-06-29T11:36:47.203Z,987.5
2017-06-29T11:37:49.255Z,987.5
2017-06-29T11:38:51.309Z,987.5
2017-06-29T11:39:53.345Z,987.5
2017-06-29T11:40:55.368Z,987.4
2017-06-29T11:41:57.418Z,987.4
2017-06-29T11:42:59.453Z,987.4
2017-06-29T11:44:01.482Z,987.4
2017-06-29T11:45:03.852Z,987.4
2017-06-29T11:46:06.240Z,987.4
2017-06-29T11:47:08.270Z,987.4
2017-06-29T11:48:10.644Z,987.4
2017-06-29T11:49:12.672Z,987.4
2017-06-29T11:50:14.709Z,987.4
2017-06-29T11:51:16.740Z,987.4
2017-06-29T11:52:18.771Z,987.4
2017-06-29T11:53:20.811Z,987.4
2017-06-29T11:54:22.840Z,987.4
2017-06-29T11:55:24.869Z,987.4
2017-06-29T11:56:26.906Z,987.4
2017-06-29T11:57:28.937Z,987.4
2017-06-29T11:58:30.969Z,987.4
2017-06-29T11:59:33.039Z,987.4
2017-06-29T12:00:35.079Z,987.4
2017-06-29T12:01:37.263Z,987.5
2017-06-29T12:02:39.388Z,987.4
2017-06-29T12:03:41.430Z,987.5
2017-06-29T12:04:43.461Z,987.5
2017-06-29T12:05:45.504Z,987.5
2017-06-29T12:06:47.535Z,987.5
2017-06-29T12:07:49.912Z,987.6
2017-06-29T12:08:51.943Z,987.5
2017-06-29T12:09:53.978Z,987.5
2017-06-29T12:10:56.021Z,987.5
2017-06-29T12:11:58.047Z,987.5
2017-06-29T12:13:00.075Z,987.5
2017-06-29T12:14:02.106Z,987.5
2017-06-29T12:15:04.150Z,987.5
2017-06-29T12:16:06.859Z,987.5
2017-06-29T12:17:08.900Z,987.5
2017-06-29T12:18:10.933Z,987.5
2017-06-29T12:19:12.966Z,987.5
2017-06-29T12:20:14.994Z,987.5
2017-06-29T12:21:17.025Z,987.4
2017-06-29T12:22:19.055Z,987.5
2017-06-29T12:23:21.430Z,987.5
2017-06-29T12:24:23.455Z,987.5
2017-06-29T12:25:25.490Z,987.4
2017-06-29T12:26:27.516Z,987.5
2017-06-29T12:27:29.555Z,987.5
2017-06-29T12:28:31.585Z,987.5
2017-06-29T12:29:33.629Z,987.4
2017-06-29T12:30:35.654Z,987.4
2017-06-29T12:31:38.023Z,987.5
2017-06-29T12:32:40.052Z,987.4
2017-06-29T12:33:42.085Z,987.4
2017-06-29T12:34:44.111Z,987.4
2017-06-29T12:35:46.175Z,987.5
2017-06-29T12:36:48.205Z,987.5
2017-06-29T12:37:50.232Z,987.5
2017-06-29T12:38:52.259Z,987.6
2017-06-29T12:39:54.282Z,987.5
2017-06-29T12:40:56.316Z,987.6
2017-06-29T12:41:58.339Z,987.6
2017-06-29T12:43:00.362Z,987.6
2017-06-29T12:44:02.393Z,987.6
2017-06-29T12:45:04.754Z,987.6
2017-06-29T12:46:06.783Z,987.6
2017-06-29T12:47:08.845Z,987.6
2017-06-29T12:48:11.216Z,987.6
2017-06-29T12:49:13.247Z,987.6
2017-06-29T12:50:15.276Z,987.6
2017-06-29T12:51:17.643Z,987.5
2017-06-29T12:52:19.672Z,987.6
2017-06-29T12:53:21.709Z,987.6
2017-06-29T12:54:23.732Z,987.6
2017-06-29T12:55:25.762Z,987.6
2017-06-29T12:56:27.790Z,987.6
2017-06-29T12:57:30.148Z,987.6
2017-06-29T12:58:32.512Z,987.7
2017-06-29T12:59:34.563Z,987.6
2017-06-29T13:00:36.921Z,987.7
2017-06-29T13:01:38.948Z,987.7
2017-06-29T13:02:40.968Z,987.7
2017-06-29T13:03:42.997Z,987.7
2017-06-29T13:04:45.353Z,987.6
2017-06-29T13:05:48.241Z,987.6
2017-06-29T13:06:50.269Z,987.6
2017-06-29T13:07:52.292Z,987.6
2017-06-29T13:08:54.313Z,987.6
2017-06-29T13:09:56.339Z,987.6
2017-06-29T13:10:58.360Z,987.6
2017-06-29T13:12:00.728Z,987.6
2017-06-29T13:13:02.748Z,987.6
2017-06-29T13:14:04.782Z,987.6
2017-06-29T13:15:07.498Z,987.7
2017-06-29T13:16:09.860Z,987.7
2017-06-29T13:17:11.889Z,987.7
2017-06-29T13:18:13.918Z,987.7
2017-06-29T13:19:15.944Z,987.7
2017-06-29T13:20:17.995Z,987.7
2017-06-29T13:21:20.360Z,987.7
2017-06-29T13:22:22.759Z,987.8
2017-06-29T13:23:25.264Z,987.7
2017-06-29T13:24:27.340Z,987.7
2017-06-29T13:25:29.378Z,987.7
2017-06-29T13:26:31.744Z,987.7